Charlevoix, MI (49720)

10:19 PM EDT on September 23, 2014 (GMT -0400)
1.5 W Ironton | Change Station
CLOSE
Current Station
Personal Weather Station
Location: Charlevoix, MI
Elevation: 750 ft
Nearby Weather Stations

Elev 750 ft 45.26 °N, 85.22 °W | Updated 2 seconds ago

Clear
Clear
59.0 °F
Feels Like 59.0 °F
N
0.0
Wind Variable Wind from SSW
Gusts 0.0 mph

Today
High -- | Low -- °F
--% Chance of Precip.
Yesterday
High -- | Low -- °F
Precip. -- in
7:29 AM 7:36 PM
Waning Crescent, 0% visible
Pressure 30.18 in
Visibility 10.0 miles
Clouds Clear
Dew Point 54 °F
Humidity 84%
Rainfall 0.00 in
Snow Depth Not available.
UV 0 out of 12
Pollen 3.80 out of 12
Ozone Good
PM2.5 Good
Flu Activity Not available.
METAR KCVX 230235Z AUTO 22007KT 10SM CLR 13/10 A3018 RMK AO2 T01300102

More Conditions Fewer Conditions

Pressure 30.18 in
Visibility 10.0 miles
Clouds Clear
Dew Point 54 °F
Humidity 84%
Rainfall 0.00 in
Snow Depth Not available.
UV 0 out of 12
Pollen 3.80 out of 12
Ozone Good
PM2.5 Good
Flu Activity Not available.
METAR KCVX 230235Z AUTO 22007KT 10SM CLR 13/10 A3018 RMK AO2 T01300102

More Conditions Fewer Conditions

Nowcast | as of 10:00 PM EDT on September 23, 2014

At 11 PM...clear. Temperature 55. Light winds. At 1 am...clear. Temperature 52. Light winds. At 3 am...clear. Temperature 51. Light winds. At 5 am...clear. Temperature 50. Light winds.

×

10-Day Weather Forecast

Almanac

Astronomy

Sep. 23, 2014 Rise Set
Actual Time 7:29 AM EDT 7:36 PM EDT
Civil Twilight 6:59 AM EDT 8:06 PM EDT
Nautical Twilight 6:25 AM EDT 8:40 PM EDT
Astronomical Twilight 5:49 AM EDT 9:15 PM EDT
Moon 6:52 AM EDT (9/23) 7:14 PM EDT (9/23)
Length of Visible Light 13h 06m
Length of Day
12h 07m
Tomorrow will be 3m 8s shorter.
Waning Crescent, 0% of the Moon is Illuminated
Today
Waning Crescent
Sep 24
New
Oct 1
First Quarter
Oct 8
Full
Oct 15
Last Quarter

Today's Extremes

State Highs State Lows

Community

WunderPhotos

Upload Photos

1,755,853 photos uploaded!

Nearby

Air Quality

  Air Quality AQ Index Pollutant
Yesterday Good
OZONE
Yesterday Good
PM2.5
Current Good
PM2.5
Current Good
OZONE
Tuesday Good
OZONE
Tuesday Good
PM2.5
Wednesday Good
OZONE
Wednesday Good
PM2.5
Thursday Good
OZONE
Thursday Good
PM2.5
Friday Good
OZONE
Friday Good
PM2.5
Saturday Good
OZONE
Saturday Good
PM2.5

Snow Depth

Station Depth Elevation
No new snow has been reported.

Earthquake Activity

City Distance Mag. Time & Date
No recent earthquake activity has been reported nearby.
Minimum magnitude displayed is 2.5.

Coastal Water Temperatures

Place Temperature
Mackinaw City, MI 60.1 °F
Port Inland, MI 61.0 °F

Nearby Weather Stations